createdAt,value
2018-09-29T00:02:24.863Z,43.67
2018-09-29T00:04:54.123Z,42.00
2018-09-29T00:07:23.283Z,35.43
2018-09-29T00:09:52.694Z,37.03
2018-09-29T00:12:22.159Z,38.53
2018-09-29T00:14:51.799Z,35.87
2018-09-29T00:17:20.668Z,39.17
2018-09-29T00:19:49.971Z,40.47
2018-09-29T00:22:19.510Z,35.23
2018-09-29T00:24:48.795Z,41.10
2018-09-29T00:27:18.150Z,37.47
2018-09-29T00:29:47.428Z,35.17
2018-09-29T00:32:16.399Z,37.10
2018-09-29T00:34:45.785Z,42.30
2018-09-29T00:37:15.328Z,36.77
2018-09-29T00:39:44.604Z,35.60
2018-09-29T00:42:14.357Z,34.63
2018-09-29T00:44:44.236Z,33.67
2018-09-29T00:47:13.399Z,41.23
2018-09-29T00:49:42.436Z,35.73
2018-09-29T00:52:11.869Z,39.93
2018-09-29T00:54:41.065Z,45.30
2018-09-29T00:57:10.430Z,39.20
2018-09-29T00:59:39.649Z,34.10
2018-09-29T01:02:08.949Z,30.97
2018-09-29T01:04:38.095Z,31.70
2018-09-29T01:07:07.683Z,31.63
2018-09-29T01:09:36.752Z,30.80
2018-09-29T01:12:06.220Z,37.40
2018-09-29T01:14:35.937Z,31.00
2018-09-29T01:17:05.259Z,29.50
2018-09-29T01:19:34.460Z,29.90
2018-09-29T01:22:05.764Z,30.63
2018-09-29T01:24:38.622Z,31.93
2018-09-29T01:27:08.693Z,29.67
2018-09-29T01:29:37.952Z,27.43
2018-09-29T01:32:07.380Z,29.70
2018-09-29T01:34:36.803Z,34.67
2018-09-29T01:37:06.042Z,29.63
2018-09-29T01:39:35.493Z,32.43
2018-09-29T01:42:04.891Z,30.13
2018-09-29T01:44:35.399Z,28.17
2018-09-29T01:47:05.042Z,25.00
2018-09-29T01:49:34.022Z,25.07
2018-09-29T01:52:03.203Z,26.00
2018-09-29T01:54:32.814Z,26.87
2018-09-29T01:57:02.054Z,24.63
2018-09-29T01:59:31.568Z,28.60
2018-09-29T02:02:00.736Z,34.57
2018-09-29T02:04:29.930Z,23.00
2018-09-29T02:06:59.168Z,24.27
2018-09-29T02:09:28.705Z,31.77
2018-09-29T02:11:57.960Z,32.80
2018-09-29T02:14:27.388Z,24.67
2018-09-29T02:16:56.580Z,23.57
2018-09-29T02:19:25.951Z,30.83
2018-09-29T02:21:55.134Z,27.13
2018-09-29T02:24:24.687Z,31.87
2018-09-29T02:26:53.862Z,27.93
2018-09-29T02:29:23.045Z,27.07
2018-09-29T02:31:53.112Z,31.97
2018-09-29T02:34:22.393Z,30.10
2018-09-29T02:36:51.432Z,28.33
2018-09-29T02:39:21.335Z,29.10
2018-09-29T02:41:50.640Z,27.77
2018-09-29T02:44:20.161Z,31.23
2018-09-29T02:46:49.639Z,27.93
2018-09-29T02:49:18.907Z,28.13
2018-09-29T02:51:48.173Z,29.23
2018-09-29T02:54:17.569Z,25.47
2018-09-29T02:56:46.812Z,26.03
2018-09-29T02:59:15.917Z,23.13
2018-09-29T03:01:45.401Z,24.13
2018-09-29T03:04:15.722Z,26.30
2018-09-29T03:06:45.235Z,30.80
2018-09-29T03:09:14.517Z,21.40
2018-09-29T03:11:43.548Z,25.67
2018-09-29T03:14:13.116Z,21.23
2018-09-29T03:16:42.323Z,23.93
2018-09-29T03:19:11.502Z,20.53
2018-09-29T03:21:41.020Z,24.00
2018-09-29T03:24:10.505Z,20.57
2018-09-29T03:26:39.578Z,20.53
2018-09-29T03:29:08.821Z,22.63
2018-09-29T03:31:37.931Z,21.20
2018-09-29T03:34:07.225Z,20.60
2018-09-29T03:36:36.810Z,18.00
2018-09-29T03:39:08.232Z,17.73
2018-09-29T03:41:37.556Z,19.67
2018-09-29T03:44:07.350Z,18.77
2018-09-29T03:46:36.670Z,21.27
2018-09-29T03:49:06.238Z,23.13
2018-09-29T03:51:35.489Z,19.87
2018-09-29T03:54:06.068Z,18.73
2018-09-29T03:56:36.142Z,22.20
2018-09-29T03:59:05.415Z,25.03
2018-09-29T04:01:34.863Z,25.77
2018-09-29T04:04:04.621Z,21.90
2018-09-29T04:06:33.847Z,24.67
2018-09-29T04:09:03.306Z,24.30
2018-09-29T04:11:32.842Z,25.47
2018-09-29T04:14:02.130Z,25.40
2018-09-29T04:16:31.200Z,24.23
2018-09-29T04:19:00.539Z,21.37
2018-09-29T04:21:33.728Z,23.10
2018-09-29T04:24:03.207Z,26.50
2018-09-29T04:26:32.432Z,24.70
2018-09-29T04:29:01.867Z,24.27
2018-09-29T04:31:31.267Z,27.30
2018-09-29T04:34:00.648Z,19.30
2018-09-29T04:36:29.909Z,22.80
2018-09-29T04:38:59.681Z,23.03
2018-09-29T04:41:28.945Z,31.57
2018-09-29T04:43:58.268Z,22.13
2018-09-29T04:46:27.483Z,26.17
2018-09-29T04:48:56.530Z,29.07
2018-09-29T04:51:25.656Z,21.63
2018-09-29T04:53:54.683Z,20.90
2018-09-29T04:56:23.843Z,24.20
2018-09-29T04:58:53.057Z,28.37
2018-09-29T05:01:22.472Z,23.43
2018-09-29T05:03:51.440Z,21.60
2018-09-29T05:06:20.562Z,25.37
2018-09-29T05:08:49.693Z,27.37
2018-09-29T05:11:18.997Z,33.07
2018-09-29T05:13:48.069Z,25.17
2018-09-29T05:16:17.243Z,29.23
2018-09-29T05:18:46.187Z,24.70
2018-09-29T05:21:15.376Z,34.13
2018-09-29T05:23:44.888Z,27.40
2018-09-29T05:26:14.050Z,23.73
2018-09-29T05:28:43.000Z,25.63
2018-09-29T05:31:12.415Z,23.40
2018-09-29T05:33:41.497Z,20.90
2018-09-29T05:36:10.461Z,20.07
2018-09-29T05:38:39.878Z,19.80
2018-09-29T05:41:08.884Z,22.13
2018-09-29T05:43:38.045Z,21.47
2018-09-29T05:47:37.305Z,16.47
2018-09-29T05:50:06.571Z,26.77
2018-09-29T05:52:35.481Z,24.33
2018-09-29T05:55:04.620Z,17.63
2018-09-29T05:57:33.768Z,16.53
2018-09-29T06:00:02.924Z,18.63
2018-09-29T06:02:32.221Z,16.67
2018-09-29T06:05:01.395Z,18.07
2018-09-29T06:07:30.459Z,17.60
2018-09-29T06:09:59.741Z,18.90
2018-09-29T06:12:28.815Z,24.73
2018-09-29T06:14:57.915Z,19.33
2018-09-29T06:17:26.951Z,19.03
2018-09-29T06:19:55.829Z,17.27
2018-09-29T06:22:24.684Z,23.50
2018-09-29T06:24:54.303Z,16.90
2018-09-29T06:27:23.206Z,16.53
2018-09-29T06:29:52.287Z,18.47
2018-09-29T06:32:21.554Z,20.07
2018-09-29T06:34:50.533Z,15.53
2018-09-29T06:37:19.629Z,18.37
2018-09-29T06:39:48.844Z,16.50
2018-09-29T06:42:17.823Z,16.33
2018-09-29T06:44:46.751Z,14.03
2018-09-29T06:47:15.649Z,18.03
2018-09-29T06:49:44.491Z,17.23
2018-09-29T06:52:13.429Z,18.30
2018-09-29T06:54:42.759Z,17.87
2018-09-29T06:57:12.277Z,22.20
2018-09-29T06:59:41.226Z,14.57
2018-09-29T07:02:10.653Z,16.80
2018-09-29T07:04:39.543Z,20.33
2018-09-29T07:07:08.410Z,18.37
2018-09-29T07:09:37.357Z,17.30
2018-09-29T07:12:06.379Z,14.93
2018-09-29T07:14:35.266Z,18.90
2018-09-29T07:17:07.234Z,16.80
2018-09-29T07:19:36.812Z,15.27
2018-09-29T07:22:05.829Z,17.53
2018-09-29T07:24:35.159Z,16.27
2018-09-29T07:27:04.024Z,19.07
2018-09-29T07:29:32.940Z,17.90
2018-09-29T07:32:02.009Z,13.40
2018-09-29T07:34:30.935Z,12.40
2018-09-29T07:36:59.906Z,14.33
2018-09-29T07:39:28.938Z,16.27
2018-09-29T07:41:57.890Z,18.07
2018-09-29T07:44:26.768Z,17.07
2018-09-29T07:46:55.707Z,15.57
2018-09-29T07:49:24.557Z,13.97
2018-09-29T07:51:53.559Z,13.40
2018-09-29T07:54:22.648Z,19.47
2018-09-29T07:56:51.682Z,22.00
2018-09-29T07:59:20.666Z,20.63
2018-09-29T08:01:49.856Z,53.63
2018-09-29T08:04:19.162Z,20.30
2018-09-29T08:06:48.270Z,15.93
2018-09-29T08:09:17.601Z,22.80
2018-09-29T08:11:46.618Z,22.63
2018-09-29T08:14:15.719Z,20.57
2018-09-29T08:16:44.797Z,19.73
2018-09-29T08:19:13.860Z,22.27
2018-09-29T08:21:42.716Z,15.47
2018-09-29T08:24:11.957Z,14.43
2018-09-29T08:26:41.056Z,15.33
2018-09-29T08:29:10.127Z,18.70
2018-09-29T08:31:39.421Z,14.80
2018-09-29T08:34:08.421Z,17.40
2018-09-29T08:36:37.396Z,12.57
2018-09-29T08:39:09.351Z,13.77
2018-09-29T08:41:38.519Z,13.10
2018-09-29T08:44:07.826Z,13.43
2018-09-29T08:46:36.994Z,13.93
2018-09-29T08:49:05.970Z,14.70
2018-09-29T08:51:35.273Z,17.00
2018-09-29T08:54:04.902Z,14.30
2018-09-29T08:56:34.020Z,17.77
2018-09-29T08:59:03.536Z,13.93
2018-09-29T09:01:32.750Z,15.10
2018-09-29T09:04:02.094Z,15.93
2018-09-29T09:06:31.471Z,16.37
2018-09-29T09:09:00.431Z,14.63
2018-09-29T09:11:29.501Z,19.37
2018-09-29T09:13:58.559Z,14.83
2018-09-29T09:16:27.741Z,13.07
2018-09-29T09:18:56.724Z,19.73
2018-09-29T09:28:10.437Z,13.97
2018-09-29T09:30:39.506Z,16.93
2018-09-29T09:33:08.637Z,19.77
2018-09-29T09:35:37.850Z,15.17
2018-09-29T09:38:07.052Z,17.83
2018-09-29T09:40:36.012Z,16.00
2018-09-29T09:43:05.427Z,20.57
2018-09-29T09:45:34.476Z,20.07
2018-09-29T09:48:04.288Z,21.90
2018-09-29T09:50:34.045Z,21.33
2018-09-29T09:53:03.030Z,42.40
2018-09-29T09:55:31.881Z,83.83
2018-09-29T09:58:00.784Z,16.40
2018-09-29T10:00:34.675Z,13.40
2018-09-29T10:03:09.006Z,14.10
2018-09-29T10:05:38.155Z,19.23
2018-09-29T10:08:07.295Z,18.80
2018-09-29T10:10:36.708Z,16.17
2018-09-29T10:13:05.788Z,17.83
2018-09-29T10:15:34.790Z,21.90
2018-09-29T10:18:03.979Z,16.80
2018-09-29T10:20:32.809Z,15.73
2018-09-29T10:23:01.730Z,16.47
2018-09-29T10:25:30.833Z,13.27
2018-09-29T10:27:59.840Z,11.93
2018-09-29T10:30:28.698Z,19.03
2018-09-29T10:32:58.108Z,18.07
2018-09-29T10:35:26.924Z,13.47
2018-09-29T10:37:55.710Z,11.63
2018-09-29T10:40:24.717Z,18.73
2018-09-29T10:42:53.588Z,12.73
2018-09-29T10:45:22.568Z,14.10
2018-09-29T10:47:51.509Z,15.63
2018-09-29T10:50:20.385Z,11.47
2018-09-29T10:52:49.268Z,13.47
2018-09-29T10:55:18.334Z,22.40
2018-09-29T10:57:47.149Z,16.43
2018-09-29T11:00:16.055Z,21.20
2018-09-29T11:02:45.225Z,18.80
2018-09-29T11:05:14.153Z,13.80
2018-09-29T11:07:42.965Z,16.17
2018-09-29T11:10:12.240Z,17.80
2018-09-29T11:12:41.156Z,12.67
2018-09-29T11:15:10.050Z,14.20
2018-09-29T11:17:38.871Z,17.43
2018-09-29T11:20:07.868Z,18.10
2018-09-29T11:22:37.028Z,20.90
2018-09-29T11:25:06.605Z,18.40
2018-09-29T11:27:49.236Z,17.70
2018-09-29T11:30:18.840Z,18.40
2018-09-29T11:32:48.097Z,19.80
2018-09-29T11:35:17.417Z,17.00
2018-09-29T11:37:46.863Z,16.10
2018-09-29T11:40:16.094Z,17.50
2018-09-29T11:42:45.034Z,39.37
2018-09-29T11:45:14.216Z,23.33
2018-09-29T11:47:43.248Z,17.20
2018-09-29T11:50:12.393Z,19.97
2018-09-29T11:52:41.523Z,15.63
2018-09-29T11:55:10.629Z,15.87
2018-09-29T11:57:39.688Z,20.80
2018-09-29T12:00:09.049Z,17.10
2018-09-29T12:02:37.936Z,15.53
2018-09-29T12:05:07.010Z,27.10
2018-09-29T12:07:36.246Z,26.23
2018-09-29T12:10:05.329Z,19.23
2018-09-29T12:12:34.410Z,27.60
2018-09-29T12:15:03.614Z,19.37
2018-09-29T12:17:32.640Z,19.50
2018-09-29T12:20:01.746Z,17.73
2018-09-29T12:22:30.883Z,12.07
2018-09-29T12:24:59.855Z,15.10
2018-09-29T12:27:28.736Z,21.43
2018-09-29T12:29:58.253Z,25.17
2018-09-29T12:32:27.321Z,15.07
2018-09-29T12:34:56.368Z,16.03
2018-09-29T12:37:25.976Z,16.23
2018-09-29T12:39:56.862Z,13.83
2018-09-29T12:42:26.324Z,11.83
2018-09-29T12:44:55.230Z,12.90
2018-09-29T12:47:24.227Z,14.70
2018-09-29T12:49:53.465Z,13.07
2018-09-29T12:52:22.355Z,10.80
2018-09-29T12:54:51.417Z,13.20
2018-09-29T12:57:21.306Z,12.70
2018-09-29T12:59:50.425Z,15.77
2018-09-29T13:02:19.879Z,20.77
2018-09-29T13:04:49.115Z,13.40
2018-09-29T13:07:18.105Z,21.73
2018-09-29T13:09:46.990Z,24.40
2018-09-29T13:12:15.888Z,15.03
2018-09-29T13:14:44.813Z,28.37
2018-09-29T13:17:13.837Z,17.97
2018-09-29T13:19:42.788Z,14.27
2018-09-29T13:22:11.701Z,13.77
2018-09-29T13:24:40.567Z,12.90
2018-09-29T13:27:09.758Z,13.30
2018-09-29T13:29:38.694Z,11.03
2018-09-29T13:32:07.667Z,17.13
2018-09-29T13:34:45.267Z,12.03
2018-09-29T13:37:14.200Z,13.13
2018-09-29T13:39:43.051Z,11.97
2018-09-29T13:42:12.081Z,17.33
2018-09-29T13:44:41.031Z,11.60
2018-09-29T13:47:09.995Z,16.53
2018-09-29T13:49:39.185Z,13.70
2018-09-29T13:52:08.142Z,11.60
2018-09-29T13:54:37.130Z,12.30
2018-09-29T13:57:06.645Z,13.30
2018-09-29T13:59:35.625Z,11.07
2018-09-29T14:02:04.484Z,13.07
2018-09-29T14:04:33.670Z,17.00
2018-09-29T14:07:02.658Z,15.80
2018-09-29T14:09:31.660Z,17.13
2018-09-29T14:12:00.776Z,14.80
2018-09-29T14:14:29.851Z,23.17
2018-09-29T14:16:58.671Z,20.80
2018-09-29T14:19:27.620Z,20.77
2018-09-29T14:21:56.634Z,18.07
2018-09-29T14:24:25.581Z,19.93
2018-09-29T14:26:54.993Z,20.87
2018-09-29T14:29:24.776Z,21.93
2018-09-29T14:31:53.790Z,16.80
2018-09-29T14:34:23.233Z,20.73
2018-09-29T14:36:52.215Z,18.27
2018-09-29T14:39:21.100Z,19.87
2018-09-29T14:41:50.439Z,30.60
2018-09-29T14:44:19.246Z,20.90
2018-09-29T14:46:48.239Z,17.93
2018-09-29T14:49:17.132Z,23.73
2018-09-29T14:51:46.058Z,17.90
2018-09-29T14:54:14.995Z,14.77
2018-09-29T14:56:44.136Z,20.93
2018-09-29T14:59:13.171Z,27.17
2018-09-29T15:01:42.102Z,22.23
2018-09-29T15:04:11.222Z,13.57
2018-09-29T15:06:40.209Z,19.27
2018-09-29T15:09:10.928Z,23.00
2018-09-29T15:11:40.068Z,17.93
2018-09-29T15:14:09.560Z,17.60
2018-09-29T15:16:38.512Z,21.53
2018-09-29T15:19:07.924Z,13.67
2018-09-29T15:21:36.905Z,14.13
2018-09-29T15:24:05.947Z,11.93
2018-09-29T15:26:34.875Z,17.77
2018-09-29T15:29:03.767Z,13.87
2018-09-29T15:31:32.874Z,15.80
2018-09-29T15:34:02.069Z,14.63
2018-09-29T15:36:31.216Z,20.87
2018-09-29T15:39:00.138Z,22.20
2018-09-29T15:41:29.257Z,15.07
2018-09-29T15:43:58.236Z,20.20
2018-09-29T15:46:27.187Z,16.00
2018-09-29T15:48:56.110Z,21.87
2018-09-29T15:51:25.065Z,17.47
2018-09-29T15:53:54.044Z,23.73
2018-09-29T15:56:23.154Z,20.07
2018-09-29T15:58:52.080Z,17.47
2018-09-29T16:01:21.145Z,18.33
2018-09-29T16:03:50.363Z,17.70
2018-09-29T16:06:19.234Z,22.23
2018-09-29T16:08:48.186Z,17.33
2018-09-29T16:11:17.369Z,18.83
2018-09-29T16:13:46.242Z,17.37
2018-09-29T16:16:15.200Z,21.17
2018-09-29T16:18:44.141Z,27.03
2018-09-29T16:21:13.184Z,20.67
2018-09-29T16:23:42.138Z,22.40
2018-09-29T16:26:11.218Z,20.87
2018-09-29T16:28:40.132Z,23.30
2018-09-29T16:31:09.104Z,32.60
2018-09-29T16:33:38.435Z,24.00
2018-09-29T16:36:07.577Z,21.17
2018-09-29T16:38:37.153Z,20.13
2018-09-29T16:41:06.459Z,26.03
2018-09-29T16:43:35.637Z,21.53
2018-09-29T16:46:04.689Z,18.13
2018-09-29T16:48:33.623Z,16.87
2018-09-29T16:51:02.655Z,17.63
2018-09-29T16:53:31.646Z,22.77
2018-09-29T16:56:00.788Z,20.80
2018-09-29T16:58:29.788Z,20.63
2018-09-29T17:00:58.821Z,21.33
2018-09-29T17:03:27.924Z,26.37
2018-09-29T17:05:56.794Z,24.40
2018-09-29T17:08:25.645Z,32.83
2018-09-29T17:10:54.745Z,23.50
2018-09-29T17:13:23.718Z,30.67
2018-09-29T17:15:52.646Z,25.23
2018-09-29T17:18:21.577Z,24.70
2018-09-29T17:20:50.510Z,25.37
2018-09-29T17:23:19.465Z,28.73
2018-09-29T17:25:48.483Z,39.70
2018-09-29T17:28:17.389Z,36.73
2018-09-29T17:30:46.371Z,34.63
2018-09-29T17:33:15.535Z,26.03
2018-09-29T17:35:44.515Z,38.30
2018-09-29T17:38:13.344Z,35.03
2018-09-29T17:40:42.840Z,40.23
2018-09-29T17:43:11.851Z,46.10
2018-09-29T17:45:40.882Z,39.23
2018-09-29T17:48:10.055Z,46.13
2018-09-29T17:50:38.949Z,43.63
2018-09-29T17:53:07.815Z,48.67
2018-09-29T17:55:37.053Z,45.43
2018-09-29T17:58:06.305Z,37.47
2018-09-29T18:00:35.224Z,43.23
2018-09-29T18:03:04.171Z,38.70
2018-09-29T18:05:33.168Z,39.17
2018-09-29T18:08:02.225Z,40.00
2018-09-29T18:10:31.262Z,36.17
2018-09-29T18:13:00.223Z,35.80
2018-09-29T18:15:29.205Z,34.07
2018-09-29T18:17:58.481Z,30.90
2018-09-29T18:20:27.309Z,36.73
2018-09-29T18:22:56.249Z,39.07
2018-09-29T18:25:25.647Z,36.87
2018-09-29T18:27:54.543Z,41.00
2018-09-29T18:30:23.529Z,34.97
2018-09-29T18:32:52.588Z,77.37
2018-09-29T18:35:21.613Z,44.07
2018-09-29T18:37:50.595Z,45.37
2018-09-29T18:40:19.900Z,51.53
2018-09-29T18:42:48.877Z,47.77
2018-09-29T18:45:17.782Z,40.13
2018-09-29T18:47:46.973Z,37.23
2018-09-29T18:50:15.898Z,34.23
2018-09-29T18:52:44.789Z,46.03
2018-09-29T18:55:13.810Z,34.40
2018-09-29T18:57:42.862Z,32.30
2018-09-29T19:00:11.779Z,35.80
2018-09-29T19:02:41.111Z,36.20
2018-09-29T19:05:09.995Z,38.57
2018-09-29T19:07:38.904Z,35.30
2018-09-29T19:10:07.939Z,35.17
2018-09-29T19:12:36.935Z,32.10
2018-09-29T19:15:06.137Z,36.93
2018-09-29T19:17:35.261Z,27.23
2018-09-29T19:20:04.173Z,30.17
2018-09-29T19:22:33.101Z,33.40
2018-09-29T19:25:02.724Z,37.50
2018-09-29T19:27:31.707Z,35.23
2018-09-29T19:30:00.692Z,37.23
2018-09-29T19:32:30.007Z,30.47
2018-09-29T19:34:59.032Z,30.67
2018-09-29T19:37:30.552Z,34.53
2018-09-29T19:40:00.220Z,38.73
2018-09-29T19:42:29.588Z,46.67
2018-09-29T19:44:58.620Z,42.30
2018-09-29T19:47:28.360Z,48.33
2018-09-29T19:49:57.419Z,50.67
2018-09-29T19:52:26.792Z,39.03
2018-09-29T19:54:56.394Z,37.50
2018-09-29T19:57:25.740Z,31.30
2018-09-29T19:59:55.012Z,33.47
2018-09-29T20:02:24.354Z,35.40
2018-09-29T20:04:53.677Z,41.60
2018-09-29T20:07:22.984Z,42.60
2018-09-29T20:09:52.042Z,38.10
2018-09-29T20:12:21.128Z,40.67
2018-09-29T20:14:50.306Z,37.23
2018-09-29T20:17:19.330Z,36.60
2018-09-29T20:19:48.557Z,35.83
2018-09-29T20:22:17.829Z,34.50
2018-09-29T20:24:47.081Z,41.63
2018-09-29T20:27:16.333Z,35.20
2018-09-29T20:29:45.590Z,42.70
2018-09-29T20:32:14.924Z,31.53
2018-09-29T20:34:44.154Z,35.10
2018-09-29T20:37:13.588Z,34.70
2018-09-29T20:39:43.106Z,31.43
2018-09-29T20:42:12.211Z,37.27
2018-09-29T20:44:41.482Z,32.30
2018-09-29T20:47:10.969Z,28.50
2018-09-29T20:49:40.118Z,35.40
2018-09-29T20:52:09.410Z,37.50
2018-09-29T20:54:38.913Z,32.50
2018-09-29T20:57:08.474Z,31.53
2018-09-29T20:59:37.733Z,33.47
2018-09-29T21:02:07.128Z,32.80
2018-09-29T21:04:36.609Z,29.23
2018-09-29T21:07:05.840Z,28.87
2018-09-29T21:09:35.751Z,30.10
2018-09-29T21:12:05.072Z,28.93
2018-09-29T21:14:34.405Z,30.00
2018-09-29T21:17:03.695Z,29.33
2018-09-29T21:19:32.950Z,26.50
2018-09-29T21:22:02.308Z,25.60
2018-09-29T21:24:31.750Z,30.83
2018-09-29T21:27:01.114Z,26.87
2018-09-29T21:29:30.314Z,30.77
2018-09-29T21:31:59.767Z,40.50
2018-09-29T21:34:28.820Z,26.27
2018-09-29T21:36:57.908Z,23.80
2018-09-29T21:39:27.499Z,29.20
2018-09-29T21:41:56.848Z,34.77
2018-09-29T21:44:26.373Z,34.77
2018-09-29T21:46:55.911Z,34.20
2018-09-29T21:49:25.085Z,33.07
2018-09-29T21:51:54.201Z,28.47
2018-09-29T21:54:23.906Z,30.77
2018-09-29T21:56:53.146Z,31.63
2018-09-29T21:59:22.275Z,31.73
2018-09-29T22:01:51.366Z,29.17
2018-09-29T22:04:20.427Z,35.80
2018-09-29T22:06:49.567Z,32.27
2018-09-29T22:09:22.640Z,29.87
2018-09-29T22:11:52.482Z,37.43
2018-09-29T22:14:21.762Z,31.20
2018-09-29T22:16:51.474Z,33.80
2018-09-29T22:19:20.800Z,35.03
2018-09-29T22:21:49.959Z,34.83
2018-09-29T22:24:19.113Z,35.40
2018-09-29T22:26:48.537Z,36.07
2018-09-29T22:29:17.852Z,40.13
2018-09-29T22:31:47.232Z,39.70
2018-09-29T22:34:16.585Z,33.03
2018-09-29T22:36:45.753Z,37.70
2018-09-29T22:39:15.083Z,42.47
2018-09-29T22:41:44.065Z,39.53
2018-09-29T22:44:13.336Z,40.57
2018-09-29T22:46:42.718Z,37.57
2018-09-29T22:49:12.047Z,38.17
2018-09-29T22:51:41.289Z,41.60
2018-09-29T22:54:10.529Z,36.40
2018-09-29T22:56:39.944Z,44.30
2018-09-29T22:59:09.093Z,45.63
2018-09-29T23:01:38.341Z,39.67
2018-09-29T23:04:07.611Z,43.77
2018-09-29T23:06:36.905Z,37.53
2018-09-29T23:09:09.961Z,37.50
2018-09-29T23:11:39.178Z,43.10
2018-09-29T23:15:11.442Z,45.90
2018-09-29T23:17:40.711Z,35.07
2018-09-29T23:20:09.782Z,41.60
2018-09-29T23:22:38.846Z,37.60
2018-09-29T23:25:07.968Z,34.37
2018-09-29T23:27:37.152Z,39.07
2018-09-29T23:30:06.739Z,40.97
2018-09-29T23:32:35.684Z,43.93
2018-09-29T23:35:04.758Z,37.20
2018-09-29T23:37:34.080Z,41.70
2018-09-29T23:40:03.171Z,37.07
2018-09-29T23:42:32.399Z,39.50
2018-09-29T23:45:01.762Z,43.17
2018-09-29T23:47:30.807Z,38.30
2018-09-29T23:49:59.976Z,34.07
2018-09-29T23:52:29.369Z,40.43
2018-09-29T23:54:58.533Z,35.43
2018-09-29T23:57:28.620Z,42.13
2018-09-29T23:59:58.129Z,42.63
